RYR1CZ EHEH-EPMO
Flight info
| Callsign | RYR1CZ |
|---|---|
| Flight time | N/A |
| Altitude | 35000 |
| Route | VELNI Y869 SUMOP L179 MISRI Z851 ROBEG DCT HLZ DCT SUBIX DCT OBOKU P150 DOSIX |
| Aircraft | B738/M-SDE3FGILRWY/SB1 |
Departure
| Time | 2026-04-27 17:38 |
|---|---|
| Airport | Eindhoven Airport (EHEH) |
Arrival
| Time | N/A |
|---|---|
| Airport | Warsaw Modlin Airport (EPMO) |
| Time | Latitude | Longitude | Altitude | Speed | Heading |
|---|---|---|---|---|---|
| 2026-04-27 17:00 | 51.45856 | 5.39056 | 74 ft | 0 kts | 124° |
| 2026-04-27 17:25 | 51.45862 | 5.39042 | 74 ft | 2 kts | 127° |
| 2026-04-27 17:25 | 51.45872 | 5.39022 | 63 ft | 2 kts | 130° |
| 2026-04-27 17:25 | 51.45883 | 5.39002 | 67 ft | 2 kts | 137° |
| 2026-04-27 17:25 | 51.45896 | 5.38986 | 68 ft | 2 kts | 150° |
| 2026-04-27 17:26 | 51.45911 | 5.38977 | 63 ft | 2 kts | 183° |
| 2026-04-27 17:26 | 51.45925 | 5.38983 | 68 ft | 1 kts | 214° |
| 2026-04-27 17:26 | 51.45927 | 5.38986 | 65 ft | 0 kts | 216° |
| 2026-04-27 17:29 | 51.45918 | 5.38975 | 68 ft | 4 kts | 215° |
| 2026-04-27 17:29 | 51.45881 | 5.38933 | 66 ft | 8 kts | 214° |
| 2026-04-27 17:29 | 51.45832 | 5.38878 | 65 ft | 10 kts | 215° |
| 2026-04-27 17:30 | 51.45785 | 5.38817 | 69 ft | 7 kts | 245° |
| 2026-04-27 17:30 | 51.45839 | 5.38672 | 69 ft | 10 kts | 305° |
| 2026-04-27 17:30 | 51.45881 | 5.38575 | 70 ft | 11 kts | 305° |
| 2026-04-27 17:31 | 51.45923 | 5.38480 | 70 ft | 10 kts | 306° |
| 2026-04-27 17:31 | 51.45966 | 5.38386 | 68 ft | 12 kts | 306° |
| 2026-04-27 17:31 | 51.45990 | 5.38274 | 69 ft | 11 kts | 236° |
| 2026-04-27 17:31 | 51.45932 | 5.38201 | 71 ft | 11 kts | 216° |
| 2026-04-27 17:32 | 51.45867 | 5.38128 | 66 ft | 12 kts | 215° |
| 2026-04-27 17:32 | 51.45691 | 5.37931 | 74 ft | 19 kts | 215° |
| 2026-04-27 17:32 | 51.45569 | 5.37794 | 74 ft | 24 kts | 215° |
| 2026-04-27 17:33 | 51.45428 | 5.37637 | 69 ft | 25 kts | 215° |
| 2026-04-27 17:33 | 51.45288 | 5.37479 | 68 ft | 23 kts | 215° |
| 2026-04-27 17:33 | 51.45159 | 5.37335 | 67 ft | 23 kts | 215° |
| 2026-04-27 17:33 | 51.45031 | 5.37190 | 71 ft | 22 kts | 215° |
| 2026-04-27 17:34 | 51.44908 | 5.37053 | 69 ft | 21 kts | 215° |
| 2026-04-27 17:34 | 51.44788 | 5.36919 | 65 ft | 21 kts | 215° |
| 2026-04-27 17:34 | 51.44672 | 5.36789 | 66 ft | 20 kts | 215° |
| 2026-04-27 17:34 | 51.44559 | 5.36663 | 69 ft | 19 kts | 215° |
| 2026-04-27 17:35 | 51.44452 | 5.36542 | 68 ft | 19 kts | 215° |
| 2026-04-27 17:35 | 51.44346 | 5.36425 | 72 ft | 18 kts | 214° |
| 2026-04-27 17:35 | 51.44244 | 5.36312 | 70 ft | 18 kts | 215° |
| 2026-04-27 17:35 | 51.44146 | 5.36201 | 70 ft | 17 kts | 215° |
| 2026-04-27 17:36 | 51.44052 | 5.36095 | 71 ft | 15 kts | 215° |
| 2026-04-27 17:36 | 51.43986 | 5.36080 | 69 ft | 10 kts | 146° |
| 2026-04-27 17:36 | 51.43947 | 5.36166 | 67 ft | 9 kts | 124° |
| 2026-04-27 17:36 | 51.43937 | 5.36247 | 73 ft | 8 kts | 39° |
| 2026-04-27 17:37 | 51.43952 | 5.36262 | 68 ft | 3 kts | 32° |
| 2026-04-27 17:37 | 51.44090 | 5.36417 | 69 ft | 56 kts | 35° |
| 2026-04-27 17:37 | 51.44590 | 5.36976 | 75 ft | 117 kts | 35° |
| 2026-04-27 17:37 | 51.45378 | 5.37855 | 204 ft | 151 kts | 34° |
| 2026-04-27 17:38 | 51.46253 | 5.38777 | 758 ft | 156 kts | 34° |
| 2026-04-27 17:38 | 51.47141 | 5.39784 | 1324 ft | 162 kts | 36° |
| 2026-04-27 17:38 | 51.48109 | 5.40883 | 1799 ft | 174 kts | 36° |
| 2026-04-27 17:38 | 51.49107 | 5.42004 | 2481 ft | 178 kts | 35° |
| 2026-04-27 17:39 | 51.50133 | 5.43148 | 3190 ft | 177 kts | 36° |
| 2026-04-27 17:39 | 51.51020 | 5.44594 | 3585 ft | 196 kts | 65° |
| 2026-04-27 17:39 | 51.51117 | 5.46859 | 3800 ft | 218 kts | 103° |
| 2026-04-27 17:39 | 51.50719 | 5.49244 | 4390 ft | 224 kts | 102° |
| 2026-04-27 17:40 | 51.50344 | 5.51719 | 4977 ft | 231 kts | 103° |
| 2026-04-27 17:40 | 51.49965 | 5.54235 | 5657 ft | 235 kts | 103° |
| 2026-04-27 17:40 | 51.49581 | 5.56800 | 6324 ft | 238 kts | 103° |
| 2026-04-27 17:40 | 51.49201 | 5.59454 | 6737 ft | 255 kts | 102° |
| 2026-04-27 17:41 | 51.48807 | 5.62355 | 7069 ft | 273 kts | 102° |
| 2026-04-27 17:41 | 51.48426 | 5.65383 | 7693 ft | 280 kts | 96° |
| 2026-04-27 17:41 | 51.48512 | 5.68509 | 8419 ft | 283 kts | 82° |
| 2026-04-27 17:41 | 51.48790 | 5.71671 | 9103 ft | 289 kts | 81° |
| 2026-04-27 17:42 | 51.49079 | 5.74884 | 9882 ft | 292 kts | 80° |
| 2026-04-27 17:42 | 51.49367 | 5.78143 | 10542 ft | 300 kts | 82° |
| 2026-04-27 17:42 | 51.49560 | 5.80391 | 10697 ft | 315 kts | 82° |
| 2026-04-27 17:42 | 51.49861 | 5.83988 | 10995 ft | 332 kts | 82° |
| 2026-04-27 17:43 | 51.50164 | 5.87698 | 11636 ft | 338 kts | 82° |
| 2026-04-27 17:43 | 51.50467 | 5.91470 | 12293 ft | 344 kts | 82° |
| 2026-04-27 17:43 | 51.51007 | 5.95226 | 12945 ft | 349 kts | 68° |
| 2026-04-27 17:43 | 51.51974 | 5.98822 | 13665 ft | 353 kts | 65° |
| 2026-04-27 17:44 | 51.53019 | 6.02426 | 14319 ft | 359 kts | 64° |
| 2026-04-27 17:44 | 51.54088 | 6.06079 | 14995 ft | 363 kts | 64° |
| 2026-04-27 17:44 | 51.55158 | 6.09768 | 15694 ft | 367 kts | 64° |
| 2026-04-27 17:44 | 51.56231 | 6.13517 | 16386 ft | 371 kts | 64° |
| 2026-04-27 17:45 | 51.57302 | 6.17306 | 17072 ft | 375 kts | 64° |
| 2026-04-27 17:45 | 51.57665 | 6.18599 | 17305 ft | 376 kts | 64° |